Caviar — ADP235 — position and weather

sailwx.info

Track history (hours):
 
Tides and Currents Weather Stations Pressure Air Temp Water Temp Dewpoint Dewpoint Depression Visibility Wind Speed Wind Dir Waves Ship Positions

Caviar

Last reported at 2018-Apr-15 08:48 UTC. Time now 2018-Jun-21 02:59 UTC.
Position S 33°49' E 151°16'.
Warning: this ship's position is months out of date.

Length 12 m.

Type: Pleasure craft. MMSI: 503052420.

Date/timePositionNaut miles runAvg speedWind from/ knotsBaromVisibWave heightAir tempDewpointWater temp
2018-Apr-15 08:48S 33°49' E 151°16'2 5.5
2018-Apr-15 08:28S 33°50' E 151°18'3 5.9
2018-Apr-15 08:01S 33°47' E 151°20'3 6.6
2018-Apr-15 07:30S 33°44' E 151°20'3 6.3
2018-Apr-15 07:01S 33°41' E 151°22'57 6.2
2018-Apr-14 21:52S 32°56' E 152°03'3 7.1
2018-Apr-14 21:30S 32°54' E 152°05'3 7.0
2018-Apr-14 21:01S 32°51' E 152°08'4 7.3
2018-Apr-14 20:30S 32°48' E 152°10'4 7.1
2018-Apr-14 20:00S 32°45' E 152°13'2 4.3
2018-Apr-14 19:26S 32°43' E 152°13'2 5.0
2018-Apr-14 19:00S 32°42' E 152°11'2 3.7
2018-Apr-14 18:30S 32°43' E 152°09'0 0.6
2018-Apr-14 18:00S 32°43' E 152°09'0 0.0
2018-Apr-14 17:30S 32°43' E 152°09'0 0.0
2018-Apr-14 17:00S 32°43' E 152°09'0 0.0
2018-Apr-14 16:30S 32°43' E 152°09'0 0.0
2018-Apr-14 16:00S 32°43' E 152°09'0 0.0
2018-Apr-14 15:30S 32°43' E 152°09'0 0.0
2018-Apr-14 15:00S 32°43' E 152°09'0 0.0
2018-Apr-14 14:30S 32°43' E 152°09'0 0.0
2018-Apr-14 14:00S 32°43' E 152°09'0 0.0
2018-Apr-14 13:30S 32°43' E 152°09'0 0.0
2018-Apr-14 13:00S 32°43' E 152°09'0 0.0
2018-Apr-14 12:30S 32°43' E 152°09'0 0.0
2018-Apr-14 12:00S 32°43' E 152°09'0 0.0
2018-Apr-14 11:30S 32°43' E 152°09'0 0.0
2018-Apr-14 11:00S 32°43' E 152°09'0 0.0
2018-Apr-14 10:30S 32°43' E 152°09'0 0.0
2018-Apr-14 10:00S 32°43' E 152°09'0 0.0
2018-Apr-14 09:30S 32°43' E 152°09'0 0.0
2018-Apr-14 09:00S 32°43' E 152°09'0 0.0
2018-Apr-14 08:30S 32°43' E 152°09'0 0.0
2018-Apr-14 08:00S 32°43' E 152°09'0 0.0
2018-Apr-14 07:30S 32°43' E 152°09'0 0.0
2018-Apr-14 07:00S 32°43' E 152°09'0 0.0
2018-Apr-14 06:30S 32°43' E 152°09'0 0.0
2018-Apr-14 06:00S 32°43' E 152°09'0 0.1
2018-Apr-14 05:29S 32°43' E 152°09'0 0.6
2018-Apr-14 05:00S 32°43' E 152°08'2 4.2
2018-Apr-14 04:30S 32°42' E 152°11'1 2.6
2018-Apr-14 03:59S 32°42' E 152°12'1 2.7
2018-Apr-14 03:30S 32°41' E 152°12'1 2.2
2018-Apr-14 03:00S 32°40' E 152°13'2 3.7
2018-Apr-14 02:30S 32°42' E 152°13'2 4.5
2018-Apr-14 02:00S 32°42' E 152°11'2 4.2
2018-Apr-14 01:30S 32°43' E 152°08'0 0.5
2018-Apr-14 00:59S 32°43' E 152°09'0 0.4
2018-Apr-14 00:28S 32°43' E 152°09'0 0.0
2018-Apr-13 23:58S 32°43' E 152°09'0 0.0
2018-Apr-13 23:28S 32°43' E 152°09'0 0.0
2018-Apr-13 22:58S 32°43' E 152°09'0 0.0
2018-Apr-13 22:28S 32°43' E 152°09'0 0.0
2018-Apr-13 21:58S 32°43' E 152°09'0 0.0
2018-Apr-13 21:28S 32°43' E 152°09'0 0.0
2018-Apr-13 20:58S 32°43' E 152°09'0 0.0
2018-Apr-13 20:28S 32°43' E 152°09'0 0.0
2018-Apr-13 19:58S 32°43' E 152°09'0 0.0
2018-Apr-13 19:28S 32°43' E 152°09'0 0.0
2018-Apr-13 18:58S 32°43' E 152°09'0 0.0
2018-Apr-13 18:28S 32°43' E 152°09'0 0.0
2018-Apr-13 17:58S 32°43' E 152°09'0 0.0
2018-Apr-13 17:28S 32°43' E 152°09'0 0.0
2018-Apr-13 16:58S 32°43' E 152°09'0 0.0
2018-Apr-13 16:28S 32°43' E 152°09'0 0.0
2018-Apr-13 15:58S 32°43' E 152°09'0 0.0
2018-Apr-13 15:28S 32°43' E 152°09'0 0.0
2018-Apr-13 14:58S 32°43' E 152°09'0 0.0
2018-Apr-13 14:28S 32°43' E 152°09'0 0.0
2018-Apr-13 13:58S 32°43' E 152°09'0 0.0
2018-Apr-13 13:28S 32°43' E 152°09'0 0.0
2018-Apr-13 12:58S 32°43' E 152°09'0 0.0
2018-Apr-13 12:28S 32°43' E 152°09'0 0.0
2018-Apr-13 11:58S 32°43' E 152°09'0 0.0
2018-Apr-13 11:28S 32°43' E 152°09'0 0.0
2018-Apr-13 10:58S 32°43' E 152°09'0 0.0
2018-Apr-13 10:28S 32°43' E 152°09'0 0.0
2018-Apr-13 09:58S 32°43' E 152°09'0 0.0
2018-Apr-13 09:28S 32°43' E 152°09'0 0.0
2018-Apr-13 08:58S 32°43' E 152°09'0 0.0
2018-Apr-13 08:28S 32°43' E 152°09'0 0.0
2018-Apr-13 07:58S 32°43' E 152°09'0 0.0
2018-Apr-13 07:28S 32°43' E 152°09'0 0.0
2018-Apr-13 06:58S 32°43' E 152°09'0 0.0
2018-Apr-13 06:28S 32°43' E 152°09'0 0.0
2018-Apr-13 05:58S 32°43' E 152°09'0 0.0
2018-Apr-13 05:28S 32°43' E 152°09'1 2.4
2018-Apr-13 05:00S 32°42' E 152°10'1 1.6
2018-Apr-13 04:28S 32°43' E 152°09'0 0.7
2018-Apr-13 04:00S 32°43' E 152°09'0 0.0
2018-Apr-13 03:30S 32°43' E 152°09'0 0.0
2018-Apr-13 03:00S 32°43' E 152°09'0 0.0
2018-Apr-13 02:30S 32°43' E 152°09'1 1.2
2018-Apr-13 02:00S 32°43' E 152°09'1 1.7
2018-Apr-13 01:30S 32°43' E 152°08'1 1.3
2018-Apr-13 01:00S 32°43' E 152°09'0 0.8
2018-Apr-13 00:29S 32°43' E 152°09'0 0.0
2018-Apr-12 23:59S 32°43' E 152°09'0 0.0
2018-Apr-12 23:29S 32°43' E 152°09'0 0.0
2018-Apr-12 22:59S 32°43' E 152°09'0 0.0
2018-Apr-12 22:29S 32°43' E 152°09'0 0.0
2018-Apr-12 21:59S 32°43' E 152°09'0 0.0
2018-Apr-12 21:29S 32°43' E 152°09'0 0.0
2018-Apr-12 20:59S 32°43' E 152°09'0 0.0
2018-Apr-12 20:29S 32°43' E 152°09'0 0.0
2018-Apr-12 19:59S 32°43' E 152°09'0 0.0
2018-Apr-12 19:29S 32°43' E 152°09'0 0.0
2018-Apr-12 18:59S 32°43' E 152°09'0 0.0
2018-Apr-12 18:29S 32°43' E 152°09'0 0.0
2018-Apr-12 17:59S 32°43' E 152°09'0 0.0
2018-Apr-12 17:29S 32°43' E 152°09'0 0.0
2018-Apr-12 16:59S 32°43' E 152°09'0 0.0
2018-Apr-12 16:29S 32°43' E 152°09'0 0.0
2018-Apr-12 15:59S 32°43' E 152°09'0 0.0
2018-Apr-12 15:29S 32°43' E 152°09'0 0.0
2018-Apr-12 14:59S 32°43' E 152°09'0 0.0
2018-Apr-12 14:29S 32°43' E 152°09'0 0.0
2018-Apr-12 13:59S 32°43' E 152°09'0 0.0
2018-Apr-12 13:29S 32°43' E 152°09'0 0.0
2018-Apr-12 12:59S 32°43' E 152°09'0 0.0
2018-Apr-12 12:29S 32°43' E 152°09'0 0.0
2018-Apr-12 11:59S 32°43' E 152°09'0 0.0
2018-Apr-12 11:29S 32°43' E 152°09'0 0.0
2018-Apr-12 10:59S 32°43' E 152°09'0 0.0
2018-Apr-12 10:29S 32°43' E 152°09'0 0.0
2018-Apr-12 09:59S 32°43' E 152°09'0 0.0
2018-Apr-12 09:29S 32°43' E 152°09'0 0.0
2018-Apr-12 08:59S 32°43' E 152°09'0 0.0
2018-Apr-12 08:29S 32°43' E 152°09'0 0.0
2018-Apr-12 07:59S 32°43' E 152°09'0 0.0
2018-Apr-12 07:29S 32°43' E 152°09'0 0.0
2018-Apr-12 06:59S 32°43' E 152°09'0 0.0
2018-Apr-12 06:29S 32°43' E 152°09'0 0.0
2018-Apr-12 05:59S 32°43' E 152°09'0 0.0
2018-Apr-12 05:29S 32°43' E 152°09'0 0.0
2018-Apr-12 04:59S 32°43' E 152°09'0 0.0
2018-Apr-12 04:29S 32°43' E 152°09'0 0.0
2018-Apr-12 03:59S 32°43' E 152°09'0 0.0
2018-Apr-12 03:29S 32°43' E 152°09'0 0.0
2018-Apr-12 02:59S 32°43' E 152°09'0 0.0
2018-Apr-12 02:29S 32°43' E 152°09'0 0.0
2018-Apr-12 01:59S 32°43' E 152°09'0 0.0
2018-Apr-12 01:29S 32°43' E 152°09'0 0.0
2018-Apr-12 00:59S 32°43' E 152°09'0 0.0
2018-Apr-12 00:29S 32°43' E 152°09'0 0.0
2018-Apr-11 23:59S 32°43' E 152°09'0 0.0
2018-Apr-11 23:29S 32°43' E 152°09'0 0.0
2018-Apr-11 22:59S 32°43' E 152°09'0 0.0
2018-Apr-11 22:29S 32°43' E 152°09'0 0.0
2018-Apr-11 21:59S 32°43' E 152°09'0 0.0
2018-Apr-11 21:29S 32°43' E 152°09'0 0.0
2018-Apr-11 20:59S 32°43' E 152°09'0 0.0
2018-Apr-11 20:29S 32°43' E 152°09'0 0.0
2018-Apr-11 19:59S 32°43' E 152°09'0 0.0
2018-Apr-11 19:29S 32°43' E 152°09'0 0.0
2018-Apr-11 18:59S 32°43' E 152°09'0 0.0
2018-Apr-11 18:29S 32°43' E 152°09'0 0.0
2018-Apr-11 17:59S 32°43' E 152°09'0 0.0
2018-Apr-11 17:29S 32°43' E 152°09'0 0.0
2018-Apr-11 16:59S 32°43' E 152°09'0 0.0
2018-Apr-11 16:29S 32°43' E 152°09'0 0.0
2018-Apr-11 15:59S 32°43' E 152°09'0 0.0
2018-Apr-11 15:29S 32°43' E 152°09'0 0.0
2018-Apr-11 14:59S 32°43' E 152°09'0 0.0
2018-Apr-11 14:29S 32°43' E 152°09'0 0.0
2018-Apr-11 13:59S 32°43' E 152°09'0 0.0
2018-Apr-11 13:29S 32°43' E 152°09'0 0.0
2018-Apr-11 12:59S 32°43' E 152°09'0 0.0
2018-Apr-11 12:29S 32°43' E 152°09'0 0.0
2018-Apr-11 11:59S 32°43' E 152°09'0 0.0
2018-Apr-11 11:29S 32°43' E 152°09'0 0.0
2018-Apr-11 10:59S 32°43' E 152°09'0 0.0
2018-Apr-11 10:29S 32°43' E 152°09'0 0.0
2018-Apr-11 09:59S 32°43' E 152°09'0 0.0
2018-Apr-11 09:29S 32°43' E 152°09'0 0.0
2018-Apr-11 08:59S 32°43' E 152°09'0 0.0
2018-Apr-11 08:23S 32°43' E 152°09'0 0.0
2018-Apr-11 07:59S 32°43' E 152°09'0 0.0
2018-Apr-11 07:29S 32°43' E 152°09'0 0.0
2018-Apr-11 06:59S 32°43' E 152°09'0 0.0
2018-Apr-11 06:29S 32°43' E 152°09'0 0.0
2018-Apr-11 05:59S 32°43' E 152°09'0 0.0
2018-Apr-11 05:17S 32°43' E 152°09'0 0.0
2018-Apr-11 04:59S 32°43' E 152°09'0 0.1
2018-Apr-11 04:30S 32°43' E 152°09'2 3.7
2018-Apr-11 04:00S 32°43' E 152°07'2 3.2
2018-Apr-11 03:30S 32°43' E 152°09'1 1.7
2018-Apr-11 03:00S 32°43' E 152°08'1 1.7
2018-Apr-11 02:29S 32°43' E 152°09'0 0.4
2018-Apr-11 02:00S 32°43' E 152°08'0 0.7
2018-Apr-11 01:30S 32°43' E 152°09'0 0.0
2018-Apr-11 01:00S 32°43' E 152°09'0 0.0
2018-Apr-11 00:30S 32°43' E 152°09'0 0.0
2018-Apr-11 00:00S 32°43' E 152°09'0 0.0
2018-Apr-10 23:30S 32°43' E 152°09'0 0.0
2018-Apr-10 23:00S 32°43' E 152°09'0 0.0
2018-Apr-10 22:30S 32°43' E 152°09'0 0.0
2018-Apr-10 22:00S 32°43' E 152°09'0 0.0
2018-Apr-10 21:30S 32°43' E 152°09'0 0.0
2018-Apr-10 21:00S 32°43' E 152°09'0 0.0
2018-Apr-10 20:30S 32°43' E 152°09'0 0.0
2018-Apr-10 20:00S 32°43' E 152°09'0 0.0
2018-Apr-10 19:30S 32°43' E 152°09'0 0.0
2018-Apr-10 19:00S 32°43' E 152°09'0 0.0
2018-Apr-10 18:30S 32°43' E 152°09'0 0.0
2018-Apr-10 18:00S 32°43' E 152°09'0 0.0
2018-Apr-10 17:30S 32°43' E 152°09'0 0.0
2018-Apr-10 17:00S 32°43' E 152°09'0 0.0
2018-Apr-10 16:30S 32°43' E 152°09'0 0.0
2018-Apr-10 16:00S 32°43' E 152°09'0 0.0
2018-Apr-10 15:30S 32°43' E 152°09'0 0.0
2018-Apr-10 15:00S 32°43' E 152°09'0 0.0
2018-Apr-10 14:30S 32°43' E 152°09'0 0.0
2018-Apr-10 14:00S 32°43' E 152°09'0 0.0
2018-Apr-10 13:30S 32°43' E 152°09'0 0.0
2018-Apr-10 13:00S 32°43' E 152°09'0 0.0
2018-Apr-10 12:30S 32°43' E 152°09'0 0.0
2018-Apr-10 12:00S 32°43' E 152°09'0 0.0
2018-Apr-10 11:30S 32°43' E 152°09'0 0.0
2018-Apr-10 11:00S 32°43' E 152°09'0 0.0
2018-Apr-10 10:30S 32°43' E 152°09'0 0.0
2018-Apr-10 10:00S 32°43' E 152°09'0 0.0
2018-Apr-10 09:30S 32°43' E 152°09'0 0.0
2018-Apr-10 09:00S 32°43' E 152°09'0 0.0
2018-Apr-10 08:30S 32°43' E 152°09'0 0.0
2018-Apr-10 08:00S 32°43' E 152°09'0 0.0
2018-Apr-10 07:30S 32°43' E 152°09'1 1.5
2018-Apr-10 06:59S 32°43' E 152°09'2 4.4
2018-Apr-10 06:30S 32°42' E 152°12'2 4.2
2018-Apr-10 06:00S 32°41' E 152°14'2 3.5
2018-Apr-10 05:30S 32°43' E 152°14'1 2.8
2018-Apr-10 05:00S 32°42' E 152°15'1 2.4
2018-Apr-10 04:30S 32°41' E 152°14'2 3.7
2018-Apr-10 04:00S 32°42' E 152°13'1 2.1
2018-Apr-10 03:30S 32°42' E 152°11'2 3.3
2018-Apr-10 02:59S 32°42' E 152°09'1 2.4
2018-Apr-10 02:30S 32°43' E 152°08'0 0.3
2018-Apr-10 02:00S 32°43' E 152°08'0 1.0
2018-Apr-10 01:30S 32°43' E 152°09'0 0.0
2018-Apr-10 01:00S 32°43' E 152°09'0 0.0
2018-Apr-10 00:30S 32°43' E 152°09'0 0.0
2018-Apr-10 00:00S 32°43' E 152°09'0 0.0
2018-Apr-09 23:30S 32°43' E 152°09'0 0.0
2018-Apr-09 23:00S 32°43' E 152°09'0 0.0
2018-Apr-09 22:30S 32°43' E 152°09'0 0.0
2018-Apr-09 22:00S 32°43' E 152°09'0 0.0
2018-Apr-09 21:30S 32°43' E 152°09'0 0.0
2018-Apr-09 21:00S 32°43' E 152°09'0 0.0
2018-Apr-09 20:30S 32°43' E 152°09'0 0.0
2018-Apr-09 20:00S 32°43' E 152°09'0 0.0
2018-Apr-09 19:24S 32°43' E 152°09'0 0.0
2018-Apr-09 19:00S 32°43' E 152°09'0 0.0
2018-Apr-09 18:30S 32°43' E 152°09'0 0.0
2018-Apr-09 18:00S 32°43' E 152°09'0 0.0
2018-Apr-09 17:30S 32°43' E 152°09'0 0.0
2018-Apr-09 17:00S 32°43' E 152°09'0 0.0
2018-Apr-09 16:30S 32°43' E 152°09'0 0.0
2018-Apr-09 16:00S 32°43' E 152°09'0 0.0
2018-Apr-09 15:30S 32°43' E 152°09'0 0.0
2018-Apr-09 15:00S 32°43' E 152°09'0 0.0
2018-Apr-09 14:30S 32°43' E 152°09'0 0.0
2018-Apr-09 14:00S 32°43' E 152°09'0 0.0
2018-Apr-09 13:30S 32°43' E 152°09'0 0.0
2018-Apr-09 13:00S 32°43' E 152°09'0 0.0
2018-Apr-09 12:30S 32°43' E 152°09'0 0.0
2018-Apr-09 12:00S 32°43' E 152°09'0 0.0
2018-Apr-09 11:30S 32°43' E 152°09'0 0.0
2018-Apr-09 11:00S 32°43' E 152°09'0 0.0
2018-Apr-09 10:30S 32°43' E 152°09'0 0.0
2018-Apr-09 10:00S 32°43' E 152°09'0 0.0
2018-Apr-09 09:30S 32°43' E 152°09'0 0.0
2018-Apr-09 09:00S 32°43' E 152°09'0 0.0
2018-Apr-09 08:30S 32°43' E 152°09'0 0.0
2018-Apr-09 08:00S 32°43' E 152°09'0 0.0
2018-Apr-09 07:30S 32°43' E 152°09'0 0.0
2018-Apr-09 07:00S 32°43' E 152°09'1 1.7
2018-Apr-09 06:30S 32°43' E 152°08'2 4.2
2018-Apr-09 06:00S 32°42' E 152°05'2 2.7
2018-Apr-09 05:25S 32°42' E 152°04'0 1.1
2018-Apr-09 05:00S 32°42' E 152°04'1 2.0
2018-Apr-09 04:30S 32°43' E 152°05'2 3.1
2018-Apr-09 04:00S 32°43' E 152°07'2 4.1
2018-Apr-09 03:29S 32°43' E 152°09'1 1.3
2018-Apr-09 03:00S 32°43' E 152°10'2 3.5
2018-Apr-09 02:30S 32°43' E 152°08'1 1.1
2018-Apr-09 02:00S 32°43' E 152°08'0 0.5
2018-Apr-09 01:30S 32°43' E 152°09'0 0.0
2018-Apr-09 01:00S 32°43' E 152°09'0 0.0
2018-Apr-09 00:30S 32°43' E 152°09'0 0.0
2018-Apr-09 00:00S 32°43' E 152°09'0 0.0
2018-Apr-08 23:30S 32°43' E 152°09'0 0.0
2018-Apr-08 23:00S 32°43' E 152°09'0 0.0
2018-Apr-08 22:30S 32°43' E 152°09'0 0.0
2018-Apr-08 22:00S 32°43' E 152°09'0 0.0
2018-Apr-08 21:30S 32°43' E 152°09'0 0.0
2018-Apr-08 21:00S 32°43' E 152°09'0 0.0
2018-Apr-08 20:30S 32°43' E 152°09'0 0.0
2018-Apr-08 20:00S 32°43' E 152°09'0 0.0
2018-Apr-08 19:30S 32°43' E 152°09'0 0.0
2018-Apr-08 19:00S 32°43' E 152°09'0 0.0
2018-Apr-08 18:30S 32°43' E 152°09'0 0.0
2018-Apr-08 18:00S 32°43' E 152°09'0 0.0
2018-Apr-08 17:30S 32°43' E 152°09'0 0.0
2018-Apr-08 17:00S 32°43' E 152°09'0 0.0
2018-Apr-08 16:30S 32°43' E 152°09'0 0.0
2018-Apr-08 16:00S 32°43' E 152°09'0 0.0
2018-Apr-08 15:30S 32°43' E 152°09'0 0.0
2018-Apr-08 15:00S 32°43' E 152°09'0 0.0
2018-Apr-08 14:30S 32°43' E 152°09'0 0.0
2018-Apr-08 14:00S 32°43' E 152°09'0 0.0
2018-Apr-08 13:30S 32°43' E 152°09'0 0.0
2018-Apr-08 13:00S 32°43' E 152°09'0 0.0
2018-Apr-08 12:30S 32°43' E 152°09'0 0.0
2018-Apr-08 12:00S 32°43' E 152°09'0 0.0
2018-Apr-08 11:30S 32°43' E 152°09'0 0.0
2018-Apr-08 11:00S 32°43' E 152°09'0 0.0
2018-Apr-08 10:30S 32°43' E 152°09'0 0.0
2018-Apr-08 10:00S 32°43' E 152°09'0 0.0
2018-Apr-08 09:30S 32°43' E 152°09'0 0.0
2018-Apr-08 09:00S 32°43' E 152°09'0 0.0
2018-Apr-08 08:30S 32°43' E 152°09'0 0.0
2018-Apr-08 08:00S 32°43' E 152°09'0 0.0
2018-Apr-08 07:30S 32°43' E 152°09'0 0.0
2018-Apr-08 06:54S 32°43' E 152°09'0 0.0
2018-Apr-08 06:30S 32°43' E 152°09'0 0.0
2018-Apr-08 06:00S 32°43' E 152°09'0 0.0
2018-Apr-08 05:30S 32°43' E 152°09'0 0.0
2018-Apr-08 05:00S 32°43' E 152°09'0 0.0
2018-Apr-08 04:30S 32°43' E 152°09'0 0.0
2018-Apr-08 04:00S 32°43' E 152°09'2 3.3
2018-Apr-08 03:30S 32°42' E 152°10'3 6.0
2018-Apr-08 03:00S 32°44' E 152°13'3 5.5
2018-Apr-08 02:30S 32°46' E 152°11'3 5.1
2018-Apr-08 02:00S 32°48' E 152°09'3 6.0
2018-Apr-08 01:30S 32°49' E 152°05'5 6.4
2018-Apr-08 00:40S 32°50' E 151°59'1 6.7
2018-Apr-08 00:30S 32°51' E 151°58'58 2.2
2018-Apr-06 22:10S 33°41' E 151°22'1 5.2
2018-Apr-06 22:00S 33°42' E 151°22'3 5.4
2018-Apr-06 21:30S 33°44' E 151°21'3 5.5
2018-Apr-06 21:00S 33°47' E 151°20'3 5.4
2018-Apr-06 20:30S 33°49' E 151°19'2 3.8
2018-Apr-06 20:00S 33°49' E 151°17'  
Track history (hours):
 
Tides and Currents Weather Stations Pressure Air Temp Water Temp Dewpoint Dewpoint Depression Visibility Wind Speed Wind Dir Waves Ship Positions

Caviar

Last reported at 2018-Apr-15 08:48 UTC. Time now 2018-Jun-21 02:59 UTC.
Position S 33°49' E 151°16'.
Warning: this ship's position is months out of date.

Length 12 m.

Type: Pleasure craft. MMSI: 503052420.

Date/timePositionNaut miles runAvg speedWind from/ knotsBaromVisibWave heightAir tempDewpointWater temp
2018-Apr-15 08:48S 33°49' E 151°16'2 5.5
2018-Apr-15 08:28S 33°50' E 151°18'3 5.9
2018-Apr-15 08:01S 33°47' E 151°20'3 6.6
2018-Apr-15 07:30S 33°44' E 151°20'3 6.3
2018-Apr-15 07:01S 33°41' E 151°22'57 6.2
2018-Apr-14 21:52S 32°56' E 152°03'3 7.1
2018-Apr-14 21:30S 32°54' E 152°05'3 7.0
2018-Apr-14 21:01S 32°51' E 152°08'4 7.3
2018-Apr-14 20:30S 32°48' E 152°10'4 7.1
2018-Apr-14 20:00S 32°45' E 152°13'2 4.3
2018-Apr-14 19:26S 32°43' E 152°13'2 5.0
2018-Apr-14 19:00S 32°42' E 152°11'2 3.7
2018-Apr-14 18:30S 32°43' E 152°09'0 0.6
2018-Apr-14 18:00S 32°43' E 152°09'0 0.0
2018-Apr-14 17:30S 32°43' E 152°09'0 0.0
2018-Apr-14 17:00S 32°43' E 152°09'0 0.0
2018-Apr-14 16:30S 32°43' E 152°09'0 0.0
2018-Apr-14 16:00S 32°43' E 152°09'0 0.0
2018-Apr-14 15:30S 32°43' E 152°09'0 0.0
2018-Apr-14 15:00S 32°43' E 152°09'0 0.0
2018-Apr-14 14:30S 32°43' E 152°09'0 0.0
2018-Apr-14 14:00S 32°43' E 152°09'0 0.0
2018-Apr-14 13:30S 32°43' E 152°09'0 0.0
2018-Apr-14 13:00S 32°43' E 152°09'0 0.0
2018-Apr-14 12:30S 32°43' E 152°09'0 0.0
2018-Apr-14 12:00S 32°43' E 152°09'0 0.0
2018-Apr-14 11:30S 32°43' E 152°09'0 0.0
2018-Apr-14 11:00S 32°43' E 152°09'0 0.0
2018-Apr-14 10:30S 32°43' E 152°09'0 0.0
2018-Apr-14 10:00S 32°43' E 152°09'0 0.0
2018-Apr-14 09:30S 32°43' E 152°09'0 0.0
2018-Apr-14 09:00S 32°43' E 152°09'0 0.0
2018-Apr-14 08:30S 32°43' E 152°09'0 0.0
2018-Apr-14 08:00S 32°43' E 152°09'0 0.0
2018-Apr-14 07:30S 32°43' E 152°09'0 0.0
2018-Apr-14 07:00S 32°43' E 152°09'0 0.0
2018-Apr-14 06:30S 32°43' E 152°09'0 0.0
2018-Apr-14 06:00S 32°43' E 152°09'0 0.1
2018-Apr-14 05:29S 32°43' E 152°09'0 0.6
2018-Apr-14 05:00S 32°43' E 152°08'2 4.2
2018-Apr-14 04:30S 32°42' E 152°11'1 2.6
2018-Apr-14 03:59S 32°42' E 152°12'1 2.7
2018-Apr-14 03:30S 32°41' E 152°12'1 2.2
2018-Apr-14 03:00S 32°40' E 152°13'2 3.7
2018-Apr-14 02:30S 32°42' E 152°13'2 4.5
2018-Apr-14 02:00S 32°42' E 152°11'2 4.2
2018-Apr-14 01:30S 32°43' E 152°08'0 0.5
2018-Apr-14 00:59S 32°43' E 152°09'0 0.4
2018-Apr-14 00:28S 32°43' E 152°09'0 0.0
2018-Apr-13 23:58S 32°43' E 152°09'0 0.0
2018-Apr-13 23:28S 32°43' E 152°09'0 0.0
2018-Apr-13 22:58S 32°43' E 152°09'0 0.0
2018-Apr-13 22:28S 32°43' E 152°09'0 0.0
2018-Apr-13 21:58S 32°43' E 152°09'0 0.0
2018-Apr-13 21:28S 32°43' E 152°09'0 0.0
2018-Apr-13 20:58S 32°43' E 152°09'0 0.0
2018-Apr-13 20:28S 32°43' E 152°09'0 0.0
2018-Apr-13 19:58S 32°43' E 152°09'0 0.0
2018-Apr-13 19:28S 32°43' E 152°09'0 0.0
2018-Apr-13 18:58S 32°43' E 152°09'0 0.0
2018-Apr-13 18:28S 32°43' E 152°09'0 0.0
2018-Apr-13 17:58S 32°43' E 152°09'0 0.0
2018-Apr-13 17:28S 32°43' E 152°09'0 0.0
2018-Apr-13 16:58S 32°43' E 152°09'0 0.0
2018-Apr-13 16:28S 32°43' E 152°09'0 0.0
2018-Apr-13 15:58S 32°43' E 152°09'0 0.0
2018-Apr-13 15:28S 32°43' E 152°09'0 0.0
2018-Apr-13 14:58S 32°43' E 152°09'0 0.0
2018-Apr-13 14:28S 32°43' E 152°09'0 0.0
2018-Apr-13 13:58S 32°43' E 152°09'0 0.0
2018-Apr-13 13:28S 32°43' E 152°09'0 0.0
2018-Apr-13 12:58S 32°43' E 152°09'0 0.0
2018-Apr-13 12:28S 32°43' E 152°09'0 0.0
2018-Apr-13 11:58S 32°43' E 152°09'0 0.0
2018-Apr-13 11:28S 32°43' E 152°09'0 0.0
2018-Apr-13 10:58S 32°43' E 152°09'0 0.0
2018-Apr-13 10:28S 32°43' E 152°09'0 0.0
2018-Apr-13 09:58S 32°43' E 152°09'0 0.0
2018-Apr-13 09:28S 32°43' E 152°09'0 0.0
2018-Apr-13 08:58S 32°43' E 152°09'0 0.0
2018-Apr-13 08:28S 32°43' E 152°09'0 0.0
2018-Apr-13 07:58S 32°43' E 152°09'0 0.0
2018-Apr-13 07:28S 32°43' E 152°09'0 0.0
2018-Apr-13 06:58S 32°43' E 152°09'0 0.0
2018-Apr-13 06:28S 32°43' E 152°09'0 0.0
2018-Apr-13 05:58S 32°43' E 152°09'0 0.0
2018-Apr-13 05:28S 32°43' E 152°09'1 2.4
2018-Apr-13 05:00S 32°42' E 152°10'1 1.6
2018-Apr-13 04:28S 32°43' E 152°09'0 0.7
2018-Apr-13 04:00S 32°43' E 152°09'0 0.0
2018-Apr-13 03:30S 32°43' E 152°09'0 0.0
2018-Apr-13 03:00S 32°43' E 152°09'0 0.0
2018-Apr-13 02:30S 32°43' E 152°09'1 1.2
2018-Apr-13 02:00S 32°43' E 152°09'1 1.7
2018-Apr-13 01:30S 32°43' E 152°08'1 1.3
2018-Apr-13 01:00S 32°43' E 152°09'0 0.8
2018-Apr-13 00:29S 32°43' E 152°09'0 0.0
2018-Apr-12 23:59S 32°43' E 152°09'0 0.0
2018-Apr-12 23:29S 32°43' E 152°09'0 0.0
2018-Apr-12 22:59S 32°43' E 152°09'0 0.0
2018-Apr-12 22:29S 32°43' E 152°09'0 0.0
2018-Apr-12 21:59S 32°43' E 152°09'0 0.0
2018-Apr-12 21:29S 32°43' E 152°09'0 0.0
2018-Apr-12 20:59S 32°43' E 152°09'0 0.0
2018-Apr-12 20:29S 32°43' E 152°09'0 0.0
2018-Apr-12 19:59S 32°43' E 152°09'0 0.0
2018-Apr-12 19:29S 32°43' E 152°09'0 0.0
2018-Apr-12 18:59S 32°43' E 152°09'0 0.0
2018-Apr-12 18:29S 32°43' E 152°09'0 0.0
2018-Apr-12 17:59S 32°43' E 152°09'0 0.0
2018-Apr-12 17:29S 32°43' E 152°09'0 0.0
2018-Apr-12 16:59S 32°43' E 152°09'0 0.0
2018-Apr-12 16:29S 32°43' E 152°09'0 0.0
2018-Apr-12 15:59S 32°43' E 152°09'0 0.0
2018-Apr-12 15:29S 32°43' E 152°09'0 0.0
2018-Apr-12 14:59S 32°43' E 152°09'0 0.0
2018-Apr-12 14:29S 32°43' E 152°09'0 0.0
2018-Apr-12 13:59S 32°43' E 152°09'0 0.0
2018-Apr-12 13:29S 32°43' E 152°09'0 0.0
2018-Apr-12 12:59S 32°43' E 152°09'0 0.0
2018-Apr-12 12:29S 32°43' E 152°09'0 0.0
2018-Apr-12 11:59S 32°43' E 152°09'0 0.0
2018-Apr-12 11:29S 32°43' E 152°09'0 0.0
2018-Apr-12 10:59S 32°43' E 152°09'0 0.0
2018-Apr-12 10:29S 32°43' E 152°09'0 0.0
2018-Apr-12 09:59S 32°43' E 152°09'0 0.0
2018-Apr-12 09:29S 32°43' E 152°09'0 0.0
2018-Apr-12 08:59S 32°43' E 152°09'0 0.0
2018-Apr-12 08:29S 32°43' E 152°09'0 0.0
2018-Apr-12 07:59S 32°43' E 152°09'0 0.0
2018-Apr-12 07:29S 32°43' E 152°09'0 0.0
2018-Apr-12 06:59S 32°43' E 152°09'0 0.0
2018-Apr-12 06:29S 32°43' E 152°09'0 0.0
2018-Apr-12 05:59S 32°43' E 152°09'0 0.0
2018-Apr-12 05:29S 32°43' E 152°09'0 0.0
2018-Apr-12 04:59S 32°43' E 152°09'0 0.0
2018-Apr-12 04:29S 32°43' E 152°09'0 0.0
2018-Apr-12 03:59S 32°43' E 152°09'0 0.0
2018-Apr-12 03:29S 32°43' E 152°09'0 0.0
2018-Apr-12 02:59S 32°43' E 152°09'0 0.0
2018-Apr-12 02:29S 32°43' E 152°09'0 0.0
2018-Apr-12 01:59S 32°43' E 152°09'0 0.0
2018-Apr-12 01:29S 32°43' E 152°09'0 0.0
2018-Apr-12 00:59S 32°43' E 152°09'0 0.0
2018-Apr-12 00:29S 32°43' E 152°09'0 0.0
2018-Apr-11 23:59S 32°43' E 152°09'0 0.0
2018-Apr-11 23:29S 32°43' E 152°09'0 0.0
2018-Apr-11 22:59S 32°43' E 152°09'0 0.0
2018-Apr-11 22:29S 32°43' E 152°09'0 0.0
2018-Apr-11 21:59S 32°43' E 152°09'0 0.0
2018-Apr-11 21:29S 32°43' E 152°09'0 0.0
2018-Apr-11 20:59S 32°43' E 152°09'0 0.0
2018-Apr-11 20:29S 32°43' E 152°09'0 0.0
2018-Apr-11 19:59S 32°43' E 152°09'0 0.0
2018-Apr-11 19:29S 32°43' E 152°09'0 0.0
2018-Apr-11 18:59S 32°43' E 152°09'0 0.0
2018-Apr-11 18:29S 32°43' E 152°09'0 0.0
2018-Apr-11 17:59S 32°43' E 152°09'0 0.0
2018-Apr-11 17:29S 32°43' E 152°09'0 0.0
2018-Apr-11 16:59S 32°43' E 152°09'0 0.0
2018-Apr-11 16:29S 32°43' E 152°09'0 0.0
2018-Apr-11 15:59S 32°43' E 152°09'0 0.0
2018-Apr-11 15:29S 32°43' E 152°09'0 0.0
2018-Apr-11 14:59S 32°43' E 152°09'0 0.0
2018-Apr-11 14:29S 32°43' E 152°09'0 0.0
2018-Apr-11 13:59S 32°43' E 152°09'0 0.0
2018-Apr-11 13:29S 32°43' E 152°09'0 0.0
2018-Apr-11 12:59S 32°43' E 152°09'0 0.0
2018-Apr-11 12:29S 32°43' E 152°09'0 0.0
2018-Apr-11 11:59S 32°43' E 152°09'0 0.0
2018-Apr-11 11:29S 32°43' E 152°09'0 0.0
2018-Apr-11 10:59S 32°43' E 152°09'0 0.0
2018-Apr-11 10:29S 32°43' E 152°09'0 0.0
2018-Apr-11 09:59S 32°43' E 152°09'0 0.0
2018-Apr-11 09:29S 32°43' E 152°09'0 0.0
2018-Apr-11 08:59S 32°43' E 152°09'0 0.0
2018-Apr-11 08:23S 32°43' E 152°09'0 0.0
2018-Apr-11 07:59S 32°43' E 152°09'0 0.0
2018-Apr-11 07:29S 32°43' E 152°09'0 0.0
2018-Apr-11 06:59S 32°43' E 152°09'0 0.0
2018-Apr-11 06:29S 32°43' E 152°09'0 0.0
2018-Apr-11 05:59S 32°43' E 152°09'0 0.0
2018-Apr-11 05:17S 32°43' E 152°09'0 0.0
2018-Apr-11 04:59S 32°43' E 152°09'0 0.1
2018-Apr-11 04:30S 32°43' E 152°09'2 3.7
2018-Apr-11 04:00S 32°43' E 152°07'2 3.2
2018-Apr-11 03:30S 32°43' E 152°09'1 1.7
2018-Apr-11 03:00S 32°43' E 152°08'1 1.7
2018-Apr-11 02:29S 32°43' E 152°09'0 0.4
2018-Apr-11 02:00S 32°43' E 152°08'0 0.7
2018-Apr-11 01:30S 32°43' E 152°09'0 0.0
2018-Apr-11 01:00S 32°43' E 152°09'0 0.0
2018-Apr-11 00:30S 32°43' E 152°09'0 0.0
2018-Apr-11 00:00S 32°43' E 152°09'0 0.0
2018-Apr-10 23:30S 32°43' E 152°09'0 0.0
2018-Apr-10 23:00S 32°43' E 152°09'0 0.0
2018-Apr-10 22:30S 32°43' E 152°09'0 0.0
2018-Apr-10 22:00S 32°43' E 152°09'0 0.0
2018-Apr-10 21:30S 32°43' E 152°09'0 0.0
2018-Apr-10 21:00S 32°43' E 152°09'0 0.0
2018-Apr-10 20:30S 32°43' E 152°09'0 0.0
2018-Apr-10 20:00S 32°43' E 152°09'0 0.0
2018-Apr-10 19:30S 32°43' E 152°09'0 0.0
2018-Apr-10 19:00S 32°43' E 152°09'0 0.0
2018-Apr-10 18:30S 32°43' E 152°09'0 0.0
2018-Apr-10 18:00S 32°43' E 152°09'0 0.0
2018-Apr-10 17:30S 32°43' E 152°09'0 0.0
2018-Apr-10 17:00S 32°43' E 152°09'0 0.0
2018-Apr-10 16:30S 32°43' E 152°09'0 0.0
2018-Apr-10 16:00S 32°43' E 152°09'0 0.0
2018-Apr-10 15:30S 32°43' E 152°09'0 0.0
2018-Apr-10 15:00S 32°43' E 152°09'0 0.0
2018-Apr-10 14:30S 32°43' E 152°09'0 0.0
2018-Apr-10 14:00S 32°43' E 152°09'0 0.0
2018-Apr-10 13:30S 32°43' E 152°09'0 0.0
2018-Apr-10 13:00S 32°43' E 152°09'0 0.0
2018-Apr-10 12:30S 32°43' E 152°09'0 0.0
2018-Apr-10 12:00S 32°43' E 152°09'0 0.0
2018-Apr-10 11:30S 32°43' E 152°09'0 0.0
2018-Apr-10 11:00S 32°43' E 152°09'0 0.0
2018-Apr-10 10:30S 32°43' E 152°09'0 0.0
2018-Apr-10 10:00S 32°43' E 152°09'0 0.0
2018-Apr-10 09:30S 32°43' E 152°09'0 0.0
2018-Apr-10 09:00S 32°43' E 152°09'0 0.0
2018-Apr-10 08:30S 32°43' E 152°09'0 0.0
2018-Apr-10 08:00S 32°43' E 152°09'0 0.0
2018-Apr-10 07:30S 32°43' E 152°09'1 1.5
2018-Apr-10 06:59S 32°43' E 152°09'2 4.4
2018-Apr-10 06:30S 32°42' E 152°12'2 4.2
2018-Apr-10 06:00S 32°41' E 152°14'2 3.5
2018-Apr-10 05:30S 32°43' E 152°14'1 2.8
2018-Apr-10 05:00S 32°42' E 152°15'1 2.4
2018-Apr-10 04:30S 32°41' E 152°14'2 3.7
2018-Apr-10 04:00S 32°42' E 152°13'1 2.1
2018-Apr-10 03:30S 32°42' E 152°11'2 3.3
2018-Apr-10 02:59S 32°42' E 152°09'1 2.4
2018-Apr-10 02:30S 32°43' E 152°08'0 0.3
2018-Apr-10 02:00S 32°43' E 152°08'0 1.0
2018-Apr-10 01:30S 32°43' E 152°09'0 0.0
2018-Apr-10 01:00S 32°43' E 152°09'0 0.0
2018-Apr-10 00:30S 32°43' E 152°09'0 0.0
2018-Apr-10 00:00S 32°43' E 152°09'0 0.0
2018-Apr-09 23:30S 32°43' E 152°09'0 0.0
2018-Apr-09 23:00S 32°43' E 152°09'0 0.0
2018-Apr-09 22:30S 32°43' E 152°09'0 0.0
2018-Apr-09 22:00S 32°43' E 152°09'0 0.0
2018-Apr-09 21:30S 32°43' E 152°09'0 0.0
2018-Apr-09 21:00S 32°43' E 152°09'0 0.0
2018-Apr-09 20:30S 32°43' E 152°09'0 0.0
2018-Apr-09 20:00S 32°43' E 152°09'0 0.0
2018-Apr-09 19:24S 32°43' E 152°09'0 0.0
2018-Apr-09 19:00S 32°43' E 152°09'0 0.0
2018-Apr-09 18:30S 32°43' E 152°09'0 0.0
2018-Apr-09 18:00S 32°43' E 152°09'0 0.0
2018-Apr-09 17:30S 32°43' E 152°09'0 0.0
2018-Apr-09 17:00S 32°43' E 152°09'0 0.0
2018-Apr-09 16:30S 32°43' E 152°09'0 0.0
2018-Apr-09 16:00S 32°43' E 152°09'0 0.0
2018-Apr-09 15:30S 32°43' E 152°09'0 0.0
2018-Apr-09 15:00S 32°43' E 152°09'0 0.0
2018-Apr-09 14:30S 32°43' E 152°09'0 0.0
2018-Apr-09 14:00S 32°43' E 152°09'0 0.0
2018-Apr-09 13:30S 32°43' E 152°09'0 0.0
2018-Apr-09 13:00S 32°43' E 152°09'0 0.0
2018-Apr-09 12:30S 32°43' E 152°09'0 0.0
2018-Apr-09 12:00S 32°43' E 152°09'0 0.0
2018-Apr-09 11:30S 32°43' E 152°09'0 0.0
2018-Apr-09 11:00S 32°43' E 152°09'0 0.0
2018-Apr-09 10:30S 32°43' E 152°09'0 0.0
2018-Apr-09 10:00S 32°43' E 152°09'0 0.0
2018-Apr-09 09:30S 32°43' E 152°09'0 0.0
2018-Apr-09 09:00S 32°43' E 152°09'0 0.0
2018-Apr-09 08:30S 32°43' E 152°09'0 0.0
2018-Apr-09 08:00S 32°43' E 152°09'0 0.0
2018-Apr-09 07:30S 32°43' E 152°09'0 0.0
2018-Apr-09 07:00S 32°43' E 152°09'1 1.7
2018-Apr-09 06:30S 32°43' E 152°08'2 4.2
2018-Apr-09 06:00S 32°42' E 152°05'2 2.7
2018-Apr-09 05:25S 32°42' E 152°04'0 1.1
2018-Apr-09 05:00S 32°42' E 152°04'1 2.0
2018-Apr-09 04:30S 32°43' E 152°05'2 3.1
2018-Apr-09 04:00S 32°43' E 152°07'2 4.1
2018-Apr-09 03:29S 32°43' E 152°09'1 1.3
2018-Apr-09 03:00S 32°43' E 152°10'2 3.5
2018-Apr-09 02:30S 32°43' E 152°08'1 1.1
2018-Apr-09 02:00S 32°43' E 152°08'0 0.5
2018-Apr-09 01:30S 32°43' E 152°09'0 0.0
2018-Apr-09 01:00S 32°43' E 152°09'0 0.0
2018-Apr-09 00:30S 32°43' E 152°09'0 0.0
2018-Apr-09 00:00S 32°43' E 152°09'0 0.0
2018-Apr-08 23:30S 32°43' E 152°09'0 0.0
2018-Apr-08 23:00S 32°43' E 152°09'0 0.0
2018-Apr-08 22:30S 32°43' E 152°09'0 0.0
2018-Apr-08 22:00S 32°43' E 152°09'0 0.0
2018-Apr-08 21:30S 32°43' E 152°09'0 0.0
2018-Apr-08 21:00S 32°43' E 152°09'0 0.0
2018-Apr-08 20:30S 32°43' E 152°09'0 0.0
2018-Apr-08 20:00S 32°43' E 152°09'0 0.0
2018-Apr-08 19:30S 32°43' E 152°09'0 0.0
2018-Apr-08 19:00S 32°43' E 152°09'0 0.0
2018-Apr-08 18:30S 32°43' E 152°09'0 0.0
2018-Apr-08 18:00S 32°43' E 152°09'0 0.0
2018-Apr-08 17:30S 32°43' E 152°09'0 0.0
2018-Apr-08 17:00S 32°43' E 152°09'0 0.0
2018-Apr-08 16:30S 32°43' E 152°09'0 0.0
2018-Apr-08 16:00S 32°43' E 152°09'0 0.0
2018-Apr-08 15:30S 32°43' E 152°09'0 0.0
2018-Apr-08 15:00S 32°43' E 152°09'0 0.0
2018-Apr-08 14:30S 32°43' E 152°09'0 0.0
2018-Apr-08 14:00S 32°43' E 152°09'0 0.0
2018-Apr-08 13:30S 32°43' E 152°09'0 0.0
2018-Apr-08 13:00S 32°43' E 152°09'0 0.0
2018-Apr-08 12:30S 32°43' E 152°09'0 0.0
2018-Apr-08 12:00S 32°43' E 152°09'0 0.0
2018-Apr-08 11:30S 32°43' E 152°09'0 0.0
2018-Apr-08 11:00S 32°43' E 152°09'0 0.0
2018-Apr-08 10:30S 32°43' E 152°09'0 0.0
2018-Apr-08 10:00S 32°43' E 152°09'0 0.0
2018-Apr-08 09:30S 32°43' E 152°09'0 0.0
2018-Apr-08 09:00S 32°43' E 152°09'0 0.0
2018-Apr-08 08:30S 32°43' E 152°09'0 0.0
2018-Apr-08 08:00S 32°43' E 152°09'0 0.0
2018-Apr-08 07:30S 32°43' E 152°09'0 0.0
2018-Apr-08 06:54S 32°43' E 152°09'0 0.0
2018-Apr-08 06:30S 32°43' E 152°09'0 0.0
2018-Apr-08 06:00S 32°43' E 152°09'0 0.0
2018-Apr-08 05:30S 32°43' E 152°09'0 0.0
2018-Apr-08 05:00S 32°43' E 152°09'0 0.0
2018-Apr-08 04:30S 32°43' E 152°09'0 0.0
2018-Apr-08 04:00S 32°43' E 152°09'2 3.3
2018-Apr-08 03:30S 32°42' E 152°10'3 6.0
2018-Apr-08 03:00S 32°44' E 152°13'3 5.5
2018-Apr-08 02:30S 32°46' E 152°11'3 5.1
2018-Apr-08 02:00S 32°48' E 152°09'3 6.0
2018-Apr-08 01:30S 32°49' E 152°05'5 6.4
2018-Apr-08 00:40S 32°50' E 151°59'1 6.7
2018-Apr-08 00:30S 32°51' E 151°58'58 2.2
2018-Apr-06 22:10S 33°41' E 151°22'1 5.2
2018-Apr-06 22:00S 33°42' E 151°22'3 5.4
2018-Apr-06 21:30S 33°44' E 151°21'3 5.5
2018-Apr-06 21:00S 33°47' E 151°20'3 5.4
2018-Apr-06 20:30S 33°49' E 151°19'2 3.8
2018-Apr-06 20:00S 33°49' E 151°17'  

Dump ship's entire track history